Time;durP1;ratioP1;P1;durP2;ratioP2;P2;SDS_P1;SDS_P2;PMS_P1;PMS_P2;Temp;Humidity;BMP_temperature;BMP_pressure;BME280_temperature;BME280_humidity;BME280_pressure;Samples;Min_cycle;Max_cycle;Signal;HPM_P1;HPM_P2
2022/03/29 00:02:05;;;;;;;1.20;1.10;;;10.30;99.90;;;;;;4992796;28;20037;-61
2022/03/29 00:04:31;;;;;;;0.43;0.40;;;10.50;99.90;;;;;;4992689;28;20057;-61
2022/03/29 00:06:57;;;;;;;0.40;0.40;;;10.60;99.90;;;;;;4992075;28;20050;-60
2022/03/29 00:09:23;;;;;;;1.13;0.93;;;10.50;99.90;;;;;;4992767;28;20037;-61
2022/03/29 00:11:50;;;;;;;0.52;0.52;;;10.60;99.90;;;;;;4975092;28;20030;-61
2022/03/29 00:14:16;;;;;;;1.38;1.27;;;10.70;99.90;;;;;;4975087;28;20026;-61
2022/03/29 00:16:42;;;;;;;0.43;0.43;;;10.80;99.90;;;;;;4992267;28;20034;-61
2022/03/29 00:19:08;;;;;;;1.63;0.52;;;10.40;99.90;;;;;;4975172;28;20034;-61
2022/03/29 00:21:34;;;;;;;0.10;0.10;;;10.30;99.90;;;;;;4992377;28;20145;-61
2022/03/29 00:24:00;;;;;;;0.08;0.08;;;10.30;99.90;;;;;;4992414;28;20061;-61
2022/03/29 00:26:26;;;;;;;21.45;2.35;;;10.50;99.90;;;;;;4992200;28;20026;-61
2022/03/29 00:28:52;;;;;;;0.10;0.10;;;10.50;99.90;;;;;;4992246;28;20184;-61
2022/03/29 00:31:19;;;;;;;8.23;1.70;;;10.50;99.90;;;;;;4974556;28;20038;-61
2022/03/29 00:33:49;;;;;;;0.90;0.90;;;10.30;99.90;;;;;;4992144;28;20477;-62
2022/03/29 00:36:16;;;;;;;0.88;0.82;;;10.00;99.90;;;;;;4991752;28;20070;-62
2022/03/29 00:38:43;;;;;;;0.20;0.20;;;9.90;99.90;;;;;;4974744;28;20551;-62
2022/03/29 00:41:09;;;;;;;0.20;0.20;;;9.90;99.90;;;;;;4992135;28;20062;-61
2022/03/29 00:43:35;;;;;;;0.10;0.10;;;9.80;99.90;;;;;;4991915;28;20062;-62
2022/03/29 00:46:02;;;;;;;0.03;0.03;;;10.00;99.90;;;;;;4973823;28;20033;-61
2022/03/29 00:48:28;;;;;;;0.57;0.57;;;10.10;99.90;;;;;;4991676;28;20037;-61
2022/03/29 00:50:55;;;;;;;1.25;0.68;;;10.10;99.90;;;;;;4992033;28;20062;-61
2022/03/29 00:53:23;;;;;;;1.27;0.90;;;10.10;99.90;;;;;;4983991;23;20043;-60
2022/03/29 00:55:50;;;;;;;0.10;0.10;;;10.10;99.90;;;;;;4972467;28;20093;-59
2022/03/29 00:58:17;;;;;;;1.17;1.08;;;10.00;99.90;;;;;;4970473;28;20062;-59
2022/03/29 01:00:44;;;;;;;0.10;0.10;;;9.90;99.90;;;;;;4972604;28;20442;-60
2022/03/29 01:03:11;;;;;;;0.35;0.35;;;9.90;99.90;;;;;;4971065;28;20031;-60
2022/03/29 01:05:36;;;;;;;0.75;0.75;;;10.00;99.90;;;;;;4970495;28;20034;-59
2022/03/29 01:08:03;;;;;;;0.80;0.80;;;10.10;99.90;;;;;;4974880;28;20027;-60
2022/03/29 01:10:29;;;;;;;0.30;0.30;;;10.10;99.90;;;;;;4971947;28;20078;-56
2022/03/29 01:13:00;;;;;;;0.30;0.30;;;10.10;99.90;;;;;;4971763;28;20553;-60
2022/03/29 01:15:29;;;;;;;1.27;1.17;;;10.10;99.90;;;;;;4978889;28;20092;-60
2022/03/29 01:17:55;;;;;;;1.55;1.42;;;10.10;99.90;;;;;;4990022;28;20118;-61
2022/03/29 01:20:27;;;;;;;0.43;0.43;;;10.10;99.90;;;;;;4990324;28;20117;-61
2022/03/29 01:22:55;;;;;;;1.25;1.17;;;10.10;99.90;;;;;;4991467;28;20038;-60
2022/03/29 01:25:27;;;;;;;0.15;0.15;;;10.00;99.90;;;;;;4973377;28;20479;-58
2022/03/29 01:27:53;;;;;;;3.90;1.88;;;10.00;99.90;;;;;;4970433;28;20034;-60
2022/03/29 01:30:21;;;;;;;0.40;0.40;;;10.00;99.90;;;;;;4971003;28;20069;-60
2022/03/29 01:32:53;;;;;;;5.60;1.25;;;10.00;99.90;;;;;;4971762;28;20070;-60
2022/03/29 01:35:24;;;;;;;1.17;0.80;;;10.00;99.90;;;;;;4971146;28;20034;-59
2022/03/29 01:37:52;;;;;;;1.80;0.70;;;10.10;99.90;;;;;;4970249;28;20054;-60
2022/03/29 01:40:22;;;;;;;0.20;0.20;;;10.10;99.90;;;;;;4972930;28;20027;-59
2022/03/29 01:42:49;;;;;;;0.55;0.52;;;9.60;99.90;;;;;;4990105;28;20409;-59
2022/03/29 01:45:16;;;;;;;0.25;0.25;;;9.60;99.90;;;;;;4991202;28;20108;-60
2022/03/29 01:47:42;;;;;;;0.40;0.40;;;9.20;99.90;;;;;;4989595;28;20022;-59
2022/03/29 01:50:13;;;;;;;0.65;0.65;;;9.30;99.90;;;;;;4991355;28;20037;-60
2022/03/29 01:52:40;;;;;;;;;;;9.30;99.90;;;;;;4990650;28;20441;-58
2022/03/29 01:55:08;;;;;;;1.33;1.23;;;9.10;99.90;;;;;;4973588;28;19921;-59
2022/03/29 01:57:34;;;;;;;0.60;0.60;;;9.20;99.90;;;;;;4992404;28;20032;-59
2022/03/29 02:02:44;;;;;;;1.48;1.23;;;9.40;99.90;;;;;;4980216;28;20042;-59
2022/03/29 02:05:10;;;;;;;1.98;1.27;;;9.50;99.90;;;;;;4995254;28;20033;-59
2022/03/29 02:07:36;;;;;;;9.15;2.25;;;9.50;99.90;;;;;;4994596;28;20026;-60
2022/03/29 02:10:05;;;;;;;1.38;1.27;;;9.50;99.90;;;;;;4993765;28;20030;-60
2022/03/29 02:12:33;;;;;;;0.60;0.60;;;9.60;99.90;;;;;;4994977;28;20105;-60
2022/03/29 02:14:59;;;;;;;0.98;0.98;;;9.40;99.90;;;;;;4989035;28;20034;-59
2022/03/29 02:17:25;;;;;;;0.13;0.13;;;9.00;99.90;;;;;;4975154;28;20113;-59
2022/03/29 02:19:51;;;;;;;1.00;0.65;;;8.60;99.90;;;;;;4975382;28;20114;-59
2022/03/29 02:22:17;;;;;;;0.70;0.70;;;8.50;99.90;;;;;;4975188;28;20035;-58
2022/03/29 02:24:43;;;;;;;0.28;0.28;;;8.30;99.90;;;;;;4974828;28;20367;-59
2022/03/29 02:27:09;;;;;;;1.30;1.15;;;8.40;99.90;;;;;;4973754;28;20034;-59
2022/03/29 02:29:35;;;;;;;0.75;0.75;;;8.30;99.90;;;;;;4975266;28;20033;-59
2022/03/29 02:32:01;;;;;;;0.35;0.35;;;8.40;99.90;;;;;;4975049;28;20035;-59
2022/03/29 02:34:27;;;;;;;0.93;0.82;;;8.60;99.90;;;;;;4973744;28;20451;-59
2022/03/29 02:36:54;;;;;;;0.55;0.55;;;8.60;99.90;;;;;;4974811;28;20513;-60
2022/03/29 02:39:20;;;;;;;1.23;0.90;;;8.70;99.90;;;;;;4974933;28;20031;-59
2022/03/29 02:41:46;;;;;;;2.45;0.47;;;8.70;99.90;;;;;;4975120;28;20027;-59
2022/03/29 02:44:11;;;;;;;0.25;0.25;;;8.70;99.90;;;;;;4974636;28;20482;-59
2022/03/29 02:46:37;;;;;;;0.30;0.30;;;8.70;99.90;;;;;;4973213;28;20059;-59
2022/03/29 02:49:03;;;;;;;1.15;0.70;;;8.70;99.90;;;;;;4974882;28;20392;-59
2022/03/29 02:51:29;;;;;;;1.55;1.45;;;8.60;99.90;;;;;;4973802;28;20074;-59
2022/03/29 02:53:54;;;;;;;0.13;0.13;;;8.50;99.90;;;;;;4974532;28;20133;-60
2022/03/29 02:56:20;;;;;;;0.15;0.15;;;8.40;99.90;;;;;;4973218;28;20026;-59
2022/03/29 02:58:46;;;;;;;0.35;0.35;;;8.40;99.90;;;;;;4974870;28;20039;-59
2022/03/29 03:01:12;;;;;;;0.15;0.15;;;8.40;99.90;;;;;;4974851;28;20123;-60
2022/03/29 03:03:37;;;;;;;0.55;0.55;;;8.30;99.90;;;;;;4957097;28;20034;-60
2022/03/29 03:06:03;;;;;;;1.88;0.98;;;8.30;99.90;;;;;;4974380;28;20475;-60
2022/03/29 03:08:30;;;;;;;2.17;1.48;;;8.40;99.90;;;;;;4973739;28;20039;-58
2022/03/29 03:10:56;;;;;;;1.33;0.98;;;8.40;99.90;;;;;;4974256;28;20497;-60
2022/03/29 03:13:22;;;;;;;0.82;0.82;;;8.50;99.90;;;;;;4974222;28;20077;-59
2022/03/29 03:15:48;;;;;;;0.95;0.68;;;8.60;99.90;;;;;;4985200;28;20164;-59
2022/03/29 03:18:14;;;;;;;0.50;0.50;;;8.60;99.90;;;;;;4992178;28;20490;-59
2022/03/29 03:20:40;;;;;;;0.20;0.20;;;8.70;99.90;;;;;;4993941;28;20129;-58
2022/03/29 03:23:06;;;;;;;9.02;2.70;;;8.70;99.90;;;;;;4993778;28;20037;-60
2022/03/29 03:25:32;;;;;;;0.63;0.63;;;8.80;99.90;;;;;;4993826;28;20102;-58
2022/03/29 03:27:57;;;;;;;0.22;0.22;;;8.90;99.90;;;;;;4993393;28;20629;-59
2022/03/29 03:30:23;;;;;;;3.88;1.70;;;8.90;99.90;;;;;;4993170;28;20030;-57
2022/03/29 03:32:49;;;;;;;4.95;2.05;;;8.90;99.90;;;;;;4993160;28;20089;-59
2022/03/29 03:35:15;;;;;;;0.70;0.65;;;8.90;99.90;;;;;;4993184;28;20045;-59
2022/03/29 03:37:41;;;;;;;1.45;1.05;;;8.60;99.90;;;;;;4992991;28;20031;-58
2022/03/29 03:40:10;;;;;;;0.55;0.55;;;8.20;99.90;;;;;;4992192;28;20026;-60
2022/03/29 03:42:37;;;;;;;0.30;0.30;;;8.10;99.90;;;;;;4992194;28;20026;-59
2022/03/29 03:45:05;;;;;;;0.43;0.40;;;8.00;99.90;;;;;;4992959;28;20026;-58
2022/03/29 03:47:31;;;;;;;1.33;0.85;;;8.20;99.90;;;;;;4993133;28;20441;-59
2022/03/29 03:49:57;;;;;;;2.35;2.17;;;8.20;99.90;;;;;;4976168;28;20030;-59
2022/03/29 03:52:23;;;;;;;0.28;0.28;;;8.30;99.90;;;;;;4978033;28;20389;-61
2022/03/29 03:54:49;;;;;;;0.10;0.10;;;8.30;99.90;;;;;;4984378;28;20031;-60
2022/03/29 03:57:15;;;;;;;0.60;0.50;;;8.30;99.90;;;;;;4983473;28;20109;-60
2022/03/29 03:59:41;;;;;;;0.57;0.57;;;8.20;99.90;;;;;;4971392;28;20106;-58
2022/03/29 04:02:07;;;;;;;0.30;0.30;;;7.90;99.90;;;;;;4971072;28;20394;-60
2022/03/29 04:04:33;;;;;;;0.75;0.70;;;7.80;99.90;;;;;;4969363;28;20038;-58
2022/03/29 04:06:59;;;;;;;2.83;1.65;;;7.90;99.90;;;;;;4971160;28;20034;-59
2022/03/29 04:09:24;;;;;;;0.75;0.75;;;8.00;99.90;;;;;;4973579;28;20030;-59
2022/03/29 04:11:51;;;;;;;1.30;1.20;;;8.20;99.90;;;;;;4972940;28;20558;-60
2022/03/29 04:14:17;;;;;;;0.43;0.43;;;8.20;99.90;;;;;;4972907;28;20089;-59
2022/03/29 04:16:42;;;;;;;2.25;2.00;;;8.30;99.90;;;;;;4975592;28;20489;-59
2022/03/29 04:19:08;;;;;;;0.30;0.30;;;8.30;99.90;;;;;;4971371;28;20030;-60
2022/03/29 04:21:34;;;;;;;1.60;1.50;;;8.40;99.90;;;;;;4971566;28;20077;-60
2022/03/29 04:24:00;;;;;;;0.50;0.50;;;8.40;99.90;;;;;;4973553;28;20031;-60
2022/03/29 04:26:26;;;;;;;0.70;0.70;;;8.50;99.90;;;;;;4991838;28;20421;-60
2022/03/29 04:28:51;;;;;;;0.63;0.63;;;8.50;99.90;;;;;;4992107;28;20026;-61
2022/03/29 04:31:17;;;;;;;0.25;0.25;;;8.50;99.90;;;;;;4991810;28;20030;-61
2022/03/29 04:33:45;;;;;;;0.55;0.55;;;8.70;99.90;;;;;;4991921;28;20133;-61
2022/03/29 04:36:11;;;;;;;0.52;0.52;;;8.80;99.90;;;;;;4991772;28;20026;-61
2022/03/29 04:38:37;;;;;;;3.97;2.80;;;8.60;99.90;;;;;;4991835;28;20023;-61
2022/03/29 04:41:04;;;;;;;0.40;0.40;;;8.50;99.90;;;;;;4990726;28;20033;-60
2022/03/29 04:43:30;;;;;;;6.75;6.07;;;8.20;99.90;;;;;;4971238;28;20173;-58
2022/03/29 04:45:56;;;;;;;2.20;2.05;;;8.20;99.90;;;;;;4972315;28;20105;-60
2022/03/29 04:48:22;;;;;;;2.70;2.50;;;8.20;99.90;;;;;;4972041;28;20054;-61
2022/03/29 04:50:48;;;;;;;6.78;5.25;;;8.20;99.90;;;;;;4972202;28;20019;-59
2022/03/29 04:53:14;;;;;;;6.57;2.03;;;8.20;99.90;;;;;;4972082;28;20037;-59
2022/03/29 04:55:41;;;;;;;0.28;0.28;;;8.30;99.90;;;;;;4971982;28;20116;-61
2022/03/29 04:58:06;;;;;;;0.95;0.93;;;8.30;99.90;;;;;;4965578;28;20662;-61
2022/03/29 05:00:32;;;;;;;0.20;0.20;;;8.40;99.90;;;;;;4969555;28;20030;-61
2022/03/29 05:02:58;;;;;;;0.90;0.90;;;8.40;99.90;;;;;;4965911;28;20027;-60
2022/03/29 05:05:24;;;;;;;1.92;1.55;;;8.40;99.90;;;;;;4970034;28;20090;-59
2022/03/29 05:07:49;;;;;;;0.15;0.15;;;8.40;99.90;;;;;;4971534;28;20045;-62
2022/03/29 05:10:15;;;;;;;1.10;1.08;;;8.30;99.90;;;;;;4970545;28;20042;-61
2022/03/29 05:12:49;;;;;;;0.68;0.68;;;8.10;99.90;;;;;;4971708;28;20027;-60
2022/03/29 05:15:19;;;;;;;2.20;1.75;;;7.90;99.90;;;;;;4976911;28;20038;-60
2022/03/29 05:17:50;;;;;;;0.40;0.40;;;7.90;99.90;;;;;;4971693;28;20042;-61
2022/03/29 05:20:17;;;;;;;0.10;0.10;;;8.00;99.90;;;;;;4971274;28;20114;-62
2022/03/29 05:22:51;;;;;;;1.55;1.45;;;8.10;99.90;;;;;;4971031;28;20046;-57
2022/03/29 05:25:21;;;;;;;0.85;0.85;;;8.00;99.90;;;;;;4983262;28;20460;-61
2022/03/29 05:27:47;;;;;;;2.67;2.15;;;7.90;99.90;;;;;;4967957;28;20018;-60
2022/03/29 05:30:14;;;;;;;1.20;1.10;;;7.90;99.90;;;;;;4969970;28;20050;-61
2022/03/29 05:32:41;;;;;;;4.13;2.95;;;8.00;99.90;;;;;;4953919;28;20129;-60
2022/03/29 05:35:09;;;;;;;0.85;0.65;;;8.00;99.90;;;;;;4971541;28;20038;-60
2022/03/29 05:37:40;;;;;;;0.05;0.05;;;8.00;99.90;;;;;;4971423;28;20035;-61
2022/03/29 05:40:08;;;;;;;0.52;0.52;;;8.10;99.90;;;;;;4945690;28;20042;-60
2022/03/29 05:42:44;;;;;;;0.10;0.10;;;8.20;99.90;;;;;;4970144;28;20078;-59
2022/03/29 05:45:13;;;;;;;1.45;1.38;;;8.30;99.90;;;;;;4962923;28;20125;-59
2022/03/29 05:50:32;;;;;;;0.43;0.43;;;8.20;99.90;;;;;;4955456;28;20035;-59
2022/03/29 05:53:00;;;;;;;0.95;0.95;;;8.10;99.90;;;;;;4971382;28;20037;-59
2022/03/29 05:55:26;;;;;;;18.85;3.72;;;8.30;99.90;;;;;;4970379;28;20486;-60
2022/03/29 05:57:52;;;;;;;0.52;0.52;;;8.40;99.90;;;;;;4970840;28;20034;-61
2022/03/29 06:00:23;;;;;;;0.52;0.52;;;8.50;99.90;;;;;;4969837;28;20030;-60
2022/03/29 06:02:49;;;;;;;2.15;1.08;;;8.50;99.90;;;;;;4966811;28;20023;-61
2022/03/29 06:05:15;;;;;;;0.50;0.50;;;8.60;99.90;;;;;;4970862;28;20031;-61
2022/03/29 06:07:41;;;;;;;4.22;1.63;;;8.30;99.90;;;;;;4971065;28;20042;-60
2022/03/29 06:10:08;;;;;;;0.38;0.38;;;8.00;99.90;;;;;;4970336;28;20077;-60
2022/03/29 06:12:36;;;;;;;2.63;2.30;;;8.00;99.90;;;;;;4971957;28;20034;-61
2022/03/29 06:15:04;;;;;;;10.63;3.20;;;8.10;99.90;;;;;;4970193;28;20109;-61
2022/03/29 06:17:30;;;;;;;1.52;1.42;;;8.20;99.90;;;;;;4950687;28;20135;-61
2022/03/29 06:19:55;;;;;;;1.10;0.70;;;8.20;99.90;;;;;;4951763;29;20530;-61
2022/03/29 06:22:22;;;;;;;1.55;1.45;;;8.20;99.90;;;;;;4951827;29;20031;-60
2022/03/29 06:24:48;;;;;;;1.02;0.98;;;8.30;99.90;;;;;;4951690;28;20143;-59
2022/03/29 06:27:14;;;;;;;0.75;0.75;;;8.50;99.90;;;;;;4950367;29;20038;-60
2022/03/29 06:29:40;;;;;;;1.17;1.10;;;8.60;99.90;;;;;;4951850;28;20035;-61
2022/03/29 06:32:06;;;;;;;0.08;0.08;;;8.80;99.90;;;;;;4951904;28;20039;-61
2022/03/29 06:34:32;;;;;;;2.53;2.03;;;8.90;99.90;;;;;;4951962;28;20030;-57
2022/03/29 06:36:59;;;;;;;0.43;0.43;;;9.10;99.90;;;;;;4949434;28;20035;-61
2022/03/29 06:39:26;;;;;;;0.38;0.38;;;9.10;99.90;;;;;;4951709;28;20514;-61
2022/03/29 06:41:52;;;;;;;1.98;0.70;;;9.30;99.90;;;;;;4975433;28;20109;-61
2022/03/29 06:44:18;;;;;;;3.15;1.48;;;9.50;99.90;;;;;;4965838;28;20041;-62
2022/03/29 06:46:44;;;;;;;7.43;1.80;;;9.60;99.90;;;;;;4993847;28;20049;-61
2022/03/29 06:49:10;;;;;;;0.93;0.93;;;9.90;99.90;;;;;;5009036;28;20490;-61
2022/03/29 06:51:36;;;;;;;3.50;3.17;;;9.90;99.90;;;;;;4993715;28;20038;-61
2022/03/29 06:54:05;;;;;;;0.77;0.73;;;10.00;99.90;;;;;;4993907;28;20057;-62
2022/03/29 06:56:31;;;;;;;0.20;0.20;;;10.00;99.90;;;;;;4993599;28;20026;-61
2022/03/29 06:59:00;;;;;;;17.33;3.17;;;10.00;99.90;;;;;;4976429;28;20413;-61
2022/03/29 07:01:26;;;;;;;0.90;0.90;;;10.00;99.90;;;;;;4993461;28;20084;-61
2022/03/29 07:03:52;;;;;;;0.57;0.38;;;10.00;99.90;;;;;;4993570;28;20478;-61
2022/03/29 07:06:17;;;;;;;1.10;0.95;;;10.10;99.90;;;;;;4993461;28;20045;-62
2022/03/29 07:11:41;;;;;;;3.30;2.50;;;9.90;99.90;;;;;;4961864;28;20051;-60
2022/03/29 07:14:08;;;;;;;0.80;0.80;;;10.00;99.90;;;;;;4972853;28;20065;-60
2022/03/29 07:16:34;;;;;;;1.75;1.65;;;10.10;99.90;;;;;;4984388;28;20463;-60
2022/03/29 07:19:02;;;;;;;0.73;0.73;;;10.30;99.90;;;;;;4993653;28;20034;-60
2022/03/29 07:21:28;;;;;;;1.25;1.15;;;10.50;99.90;;;;;;4993591;28;20026;-60
2022/03/29 07:23:54;;;;;;;2.05;1.95;;;10.10;99.90;;;;;;4993458;28;20045;-60
2022/03/29 07:26:20;;;;;;;0.80;0.75;;;10.30;99.90;;;;;;4992953;28;20026;-60
2022/03/29 07:28:46;;;;;;;0.30;0.30;;;10.30;99.90;;;;;;4993031;28;20081;-60
2022/03/29 07:31:11;;;;;;;0.10;0.10;;;10.50;99.90;;;;;;4993104;28;20040;-60
2022/03/29 07:33:37;;;;;;;4.10;1.67;;;10.60;99.90;;;;;;4991544;28;20030;-60
2022/03/29 07:36:03;;;;;;;0.25;0.25;;;10.60;99.90;;;;;;4993106;28;20030;-60
2022/03/29 07:38:30;;;;;;;1.30;1.23;;;10.80;99.90;;;;;;4992774;28;20065;-60
2022/03/29 07:40:55;;;;;;;1.02;1.02;;;10.90;99.90;;;;;;4991974;28;20060;-61
2022/03/29 07:43:22;;;;;;;0.20;0.20;;;11.00;99.90;;;;;;4992801;28;20018;-61
2022/03/29 07:45:49;;;;;;;1.23;1.13;;;10.90;99.90;;;;;;4991731;28;20030;-61
2022/03/29 07:48:14;;;;;;;0.28;0.20;;;11.00;99.90;;;;;;4992526;28;20036;-61
2022/03/29 07:50:40;;;;;;;25.58;1.95;;;11.00;99.90;;;;;;4986517;28;20034;-61
2022/03/29 07:53:06;;;;;;;1.20;1.10;;;11.20;99.90;;;;;;4980542;28;20057;-61
2022/03/29 07:55:35;;;;;;;12.82;1.98;;;11.00;99.90;;;;;;4984383;28;20033;-61
2022/03/29 07:58:01;;;;;;;0.47;0.47;;;11.00;99.90;;;;;;4990799;28;20045;-61
2022/03/29 08:00:33;;;;;;;2.20;1.95;;;11.20;99.90;;;;;;4991375;28;20030;-61
2022/03/29 08:03:12;;;;;;;0.40;0.40;;;11.40;99.90;;;;;;4971482;28;20065;-61
2022/03/29 08:05:41;;;;;;;1.17;1.08;;;11.60;99.90;;;;;;4971690;28;20027;-61
2022/03/29 08:08:11;;;;;;;6.22;2.45;;;11.70;99.90;;;;;;4971401;28;20096;-61
2022/03/29 08:10:37;;;;;;;0.70;0.68;;;11.60;99.90;;;;;;4971716;28;20026;-61
2022/03/29 08:13:10;;;;;;;1.75;1.45;;;11.70;99.90;;;;;;4971692;28;20498;-61
2022/03/29 08:15:41;;;;;;;1.42;1.33;;;11.90;99.90;;;;;;4975858;28;20030;-61
2022/03/29 08:18:08;;;;;;;0.10;0.10;;;11.80;99.90;;;;;;4991942;28;20084;-61
2022/03/29 08:20:34;;;;;;;4.38;1.10;;;12.00;99.90;;;;;;4990908;28;20038;-61
2022/03/29 08:23:01;;;;;;;2.08;1.55;;;12.00;99.90;;;;;;4990872;28;20478;-61
2022/03/29 08:25:34;;;;;;;1.65;1.08;;;12.00;99.90;;;;;;4992195;28;20073;-60
2022/03/29 08:28:00;;;;;;;0.77;0.77;;;12.20;99.90;;;;;;4992024;28;20034;-61
2022/03/29 08:30:28;;;;;;;0.38;0.30;;;12.30;99.90;;;;;;4991308;28;20105;-61
2022/03/29 08:32:54;;;;;;;1.02;0.90;;;12.50;99.90;;;;;;4991742;28;20042;-61
2022/03/29 08:35:20;;;;;;;1.83;1.45;;;12.50;99.90;;;;;;4990962;28;20042;-61
2022/03/29 08:37:47;;;;;;;3.10;2.28;;;12.50;99.90;;;;;;4990238;28;20757;-61
2022/03/29 08:40:21;;;;;;;16.23;3.17;;;12.70;99.90;;;;;;4991895;28;20080;-61
2022/03/29 08:42:48;;;;;;;0.52;0.52;;;13.00;99.90;;;;;;4991709;28;20037;-61
2022/03/29 08:45:16;;;;;;;0.30;0.30;;;13.20;99.90;;;;;;4992029;28;20045;-61
2022/03/29 08:47:45;;;;;;;1.02;0.68;;;13.30;99.90;;;;;;4990118;28;20520;-61
2022/03/29 08:50:14;;;;;;;0.20;0.20;;;13.40;99.90;;;;;;4991678;28;20030;-61
2022/03/29 08:52:41;;;;;;;2.05;0.82;;;13.50;99.90;;;;;;4974495;28;20042;-61
2022/03/29 08:55:08;;;;;;;0.70;0.70;;;13.50;99.90;;;;;;4991597;28;20478;-61
2022/03/29 08:57:36;;;;;;;2.35;2.15;;;13.80;99.80;;;;;;4990201;28;20038;-61
2022/03/29 09:00:05;;;;;;;0.30;0.30;;;14.10;99.60;;;;;;4990434;28;20030;-61
2022/03/29 09:02:36;;;;;;;0.10;0.10;;;14.30;99.00;;;;;;4983521;28;20487;-62
2022/03/29 09:05:15;;;;;;;4.10;3.72;;;14.30;98.50;;;;;;4971778;28;20041;-60
2022/03/29 09:07:55;;;;;;;1.55;1.45;;;14.30;98.30;;;;;;4969806;28;20077;-61
2022/03/29 09:10:48;;;;;;;1.52;1.38;;;14.30;98.20;;;;;;4971847;28;20495;-61
2022/03/29 09:13:24;;;;;;;0.98;0.95;;;14.30;98.40;;;;;;4971631;28;20027;-61
2022/03/29 09:15:57;;;;;;;2.13;1.63;;;14.70;98.10;;;;;;4977595;28;20125;-62
2022/03/29 09:18:23;;;;;;;0.63;0.63;;;14.80;97.70;;;;;;4990125;28;20026;-61
2022/03/29 09:21:14;;;;;;;3.45;1.67;;;14.60;97.70;;;;;;4990118;28;20038;-61
2022/03/29 09:23:42;;;;;;;2.47;2.25;;;14.60;97.90;;;;;;4989691;28;20034;-62
2022/03/29 09:26:26;;;;;;;1.33;1.15;;;15.00;97.50;;;;;;4990853;28;20062;-61
2022/03/29 09:28:52;;;;;;;1.27;1.17;;;15.40;96.40;;;;;;4990992;28;20494;-61
2022/03/29 09:31:23;;;;;;;1.40;1.33;;;15.20;96.10;;;;;;4991367;28;20037;-61
2022/03/29 09:33:49;;;;;;;2.65;1.50;;;15.30;96.50;;;;;;4989689;28;20026;-62
2022/03/29 09:36:20;;;;;;;1.23;1.15;;;15.40;95.80;;;;;;4989671;28;20442;-62
2022/03/29 09:38:51;;;;;;;1.55;1.45;;;15.50;95.60;;;;;;4989634;28;20018;-62
2022/03/29 09:41:31;;;;;;;0.98;0.95;;;15.60;95.80;;;;;;4991189;28;20069;-61
2022/03/29 09:44:08;;;;;;;2.42;1.77;;;15.90;95.20;;;;;;4990995;28;20023;-62
2022/03/29 09:47:00;;;;;;;8.02;4.32;;;15.90;95.20;;;;;;4989464;28;20442;-61
2022/03/29 09:49:27;;;;;;;3.42;1.10;;;16.00;94.40;;;;;;4986085;28;20042;-62
2022/03/29 09:52:15;;;;;;;3.45;1.83;;;16.00;94.70;;;;;;4989671;28;20034;-62
2022/03/29 09:55:02;;;;;;;2.05;1.70;;;16.30;94.60;;;;;;4989288;28;20109;-61
2022/03/29 09:57:37;;;;;;;2.10;1.55;;;16.10;94.60;;;;;;4989017;28;20053;-61
2022/03/29 10:00:08;;;;;;;1.42;1.35;;;16.00;94.70;;;;;;4990474;28;20034;-61
2022/03/29 10:02:37;;;;;;;0.52;0.52;;;16.30;94.60;;;;;;4975508;28;20063;-61
2022/03/29 10:05:04;;;;;;;5.50;1.10;;;16.70;94.30;;;;;;4969896;28;20601;-62
2022/03/29 10:07:40;;;;;;;1.52;1.42;;;16.40;94.00;;;;;;4969848;28;20038;-62
2022/03/29 10:10:08;;;;;;;6.20;3.13;;;16.80;94.00;;;;;;4971304;28;20101;-62
2022/03/29 10:12:35;;;;;;;5.65;3.90;;;16.70;94.20;;;;;;4969707;28;20400;-61
2022/03/29 10:15:02;;;;;;;0.65;0.65;;;16.80;93.80;;;;;;4969930;28;20031;-62
2022/03/29 10:17:28;;;;;;;7.72;2.35;;;17.00;94.00;;;;;;4990022;28;20081;-61
2022/03/29 10:19:56;;;;;;;5.30;2.10;;;16.80;93.20;;;;;;4992871;28;20038;-62
2022/03/29 10:22:22;;;;;;;7.75;2.80;;;17.10;93.20;;;;;;4994317;28;20034;-60
2022/03/29 10:24:48;;;;;;;2.08;1.88;;;17.00;93.30;;;;;;4994480;28;20031;-61
2022/03/29 10:27:17;;;;;;;2.13;1.92;;;17.40;93.30;;;;;;4994554;28;20050;-60
2022/03/29 10:29:43;;;;;;;5.78;1.67;;;17.80;92.10;;;;;;4994615;28;20512;-60
2022/03/29 10:32:10;;;;;;;2.80;1.45;;;18.20;91.50;;;;;;4994676;28;20034;-61
2022/03/29 10:34:42;;;;;;;2.35;2.15;;;17.90;91.10;;;;;;4992954;28;20109;-60
2022/03/29 10:37:10;;;;;;;2.88;2.30;;;18.00;91.30;;;;;;4992944;28;20027;-61
2022/03/29 10:39:57;;;;;;;11.07;2.55;;;17.60;91.10;;;;;;4980743;28;20034;-58
2022/03/29 10:42:32;;;;;;;3.38;2.13;;;18.10;90.90;;;;;;4957502;28;20035;-59
2022/03/29 10:45:28;;;;;;;1.20;1.10;;;18.00;91.10;;;;;;4974661;28;20391;-59
2022/03/29 10:47:58;;;;;;;2.92;2.65;;;18.20;91.00;;;;;;4990142;28;20038;-60
2022/03/29 10:50:50;;;;;;;1.15;1.08;;;17.80;90.30;;;;;;4977151;28;20136;-60
2022/03/29 10:53:28;;;;;;;4.28;3.20;;;17.80;90.70;;;;;;4954972;28;20035;-61
2022/03/29 10:56:13;;;;;;;2.45;2.15;;;18.30;91.20;;;;;;4955107;28;20555;-60
2022/03/29 10:59:04;;;;;;;1.35;1.25;;;18.50;90.60;;;;;;4955329;28;20057;-60
2022/03/29 11:01:31;;;;;;;7.15;2.42;;;19.00;89.80;;;;;;4954723;28;20035;-60
2022/03/29 11:04:20;;;;;;;1.40;1.30;;;19.00;88.50;;;;;;4953223;29;20042;-60
2022/03/29 11:07:05;;;;;;;9.80;3.15;;;18.80;88.50;;;;;;4953247;28;20023;-60
2022/03/29 11:09:33;;;;;;;2.50;2.28;;;18.60;90.40;;;;;;4973676;28;20034;-60
2022/03/29 11:12:00;;;;;;;1.88;1.73;;;18.80;90.50;;;;;;4972896;28;20066;-61
2022/03/29 11:14:35;;;;;;;2.40;1.95;;;18.50;90.20;;;;;;4972654;28;20054;-61
2022/03/29 11:17:10;;;;;;;1.85;1.40;;;18.60;90.30;;;;;;4973537;28;20038;-61
2022/03/29 11:19:44;;;;;;;2.03;1.83;;;19.00;90.50;;;;;;4974138;28;20533;-61
2022/03/29 11:22:36;;;;;;;3.10;1.55;;;18.50;90.00;;;;;;4974387;28;20041;-60
2022/03/29 11:25:12;;;;;;;2.20;2.03;;;18.60;89.50;;;;;;4970330;28;20512;-60
2022/03/29 11:27:39;;;;;;;3.05;2.50;;;18.30;91.00;;;;;;4972573;28;20058;-61
2022/03/29 11:30:11;;;;;;;4.22;2.95;;;18.50;90.50;;;;;;4955776;28;20050;-60
2022/03/29 11:32:43;;;;;;;13.18;3.75;;;18.20;89.90;;;;;;4973735;28;20073;-61
2022/03/29 11:35:11;;;;;;;2.75;2.33;;;18.40;90.10;;;;;;4973600;28;20037;-60
2022/03/29 11:37:45;;;;;;;4.93;2.60;;;18.30;90.10;;;;;;4973449;28;20459;-61
2022/03/29 11:40:15;;;;;;;12.02;3.40;;;18.30;90.10;;;;;;4972336;28;20439;-60
2022/03/29 11:42:49;;;;;;;4.18;1.33;;;18.50;90.10;;;;;;4973564;28;20600;-61
2022/03/29 11:45:18;;;;;;;6.18;2.30;;;18.50;90.10;;;;;;4973443;28;20133;-61
2022/03/29 11:48:00;;;;;;;2.03;1.83;;;18.60;89.20;;;;;;4971880;28;20041;-60
2022/03/29 11:50:44;;;;;;;2.78;2.58;;;18.10;90.30;;;;;;4972032;28;20026;-60
2022/03/29 11:53:34;;;;;;;1.48;1.00;;;18.50;89.80;;;;;;4973066;28;20039;-61
2022/03/29 11:56:18;;;;;;;2.60;1.65;;;18.10;90.40;;;;;;4972020;28;20042;-61
2022/03/29 11:58:53;;;;;;;1.38;0.85;;;18.20;90.30;;;;;;4971809;28;20394;-61
2022/03/29 12:01:29;;;;;;;2.30;1.83;;;18.10;90.20;;;;;;4970845;28;20117;-61
2022/03/29 12:04:03;;;;;;;2.53;1.77;;;18.00;90.40;;;;;;4971590;28;20403;-60
2022/03/29 12:06:34;;;;;;;1.63;1.48;;;18.00;90.30;;;;;;4980454;28;20034;-61
2022/03/29 12:09:12;;;;;;;4.43;2.95;;;17.90;90.40;;;;;;4973525;28;20114;-61
2022/03/29 12:11:42;;;;;;;6.47;4.15;;;17.70;90.60;;;;;;4986743;28;20049;-61
2022/03/29 12:14:17;;;;;;;3.53;2.92;;;17.80;90.90;;;;;;4956676;28;20039;-61
2022/03/29 12:16:48;;;;;;;1.70;1.60;;;17.90;89.90;;;;;;4986029;28;20096;-60
2022/03/29 12:19:19;;;;;;;5.53;1.95;;;17.90;90.00;;;;;;4976648;28;20031;-61
2022/03/29 12:21:54;;;;;;;4.15;3.10;;;17.90;90.10;;;;;;4972470;28;20147;-61
2022/03/29 12:24:21;;;;;;;2.03;1.83;;;17.80;90.30;;;;;;4972705;28;20030;-61
2022/03/29 12:26:48;;;;;;;2.67;2.47;;;18.00;90.20;;;;;;4970925;28;20023;-61
2022/03/29 12:29:26;;;;;;;19.33;2.85;;;18.10;89.00;;;;;;4971500;28;20124;-61
2022/03/29 12:31:54;;;;;;;3.50;2.72;;;17.90;89.10;;;;;;4971696;28;20054;-61
2022/03/29 12:34:27;;;;;;;3.00;2.53;;;17.80;90.10;;;;;;4972605;28;20033;-61
2022/03/29 12:37:00;;;;;;;3.95;3.55;;;18.20;88.50;;;;;;4970966;28;20064;-61
2022/03/29 12:39:40;;;;;;;4.05;3.30;;;17.90;89.50;;;;;;4972155;28;20517;-61
2022/03/29 12:42:16;;;;;;;21.17;3.78;;;18.00;90.30;;;;;;4954611;28;20034;-61
2022/03/29 12:44:54;;;;;;;4.50;2.97;;;18.10;89.20;;;;;;4972296;28;20026;-61
2022/03/29 12:47:20;;;;;;;1.52;1.42;;;17.90;89.10;;;;;;4970734;28;20046;-61
2022/03/29 12:49:49;;;;;;;2.05;0.90;;;18.20;89.30;;;;;;4970983;28;20117;-61
2022/03/29 12:52:16;;;;;;;3.83;3.13;;;18.60;88.60;;;;;;4970713;28;20042;-61
2022/03/29 12:54:49;;;;;;;5.03;3.03;;;18.80;88.40;;;;;;4982176;23;20097;-61
2022/03/29 12:57:39;;;;;;;1.23;1.13;;;19.20;86.90;;;;;;4990736;28;20057;-61
2022/03/29 13:00:14;;;;;;;1.90;1.75;;;18.40;88.10;;;;;;5006559;28;20478;-61
2022/03/29 13:02:52;;;;;;;1.50;1.40;;;18.80;87.00;;;;;;5006126;28;20183;-61
2022/03/29 13:05:18;;;;;;;1.63;1.35;;;19.20;86.00;;;;;;4991032;28;20025;-60
2022/03/29 13:07:58;;;;;;;5.88;3.42;;;19.40;85.90;;;;;;4992258;28;20084;-61
2022/03/29 13:10:46;;;;;;;9.63;4.30;;;19.40;84.00;;;;;;5011347;28;20057;-60